sensor_id;sensor_type;location;lat;lon;timestamp;P1;durP1;ratioP1;P2;durP2;ratioP2
71080;SDS011;58740;50.672;18.690;2022-09-11T00:01:41;11.90;;;6.20;;
71080;SDS011;58740;50.672;18.690;2022-09-11T00:04:09;12.20;;;6.80;;
71080;SDS011;58740;50.672;18.690;2022-09-11T00:06:37;12.50;;;7.60;;
71080;SDS011;58740;50.672;18.690;2022-09-11T00:09:06;12.00;;;7.80;;
71080;SDS011;58740;50.672;18.690;2022-09-11T00:11:38;11.80;;;7.40;;
71080;SDS011;58740;50.672;18.690;2022-09-11T00:14:11;15.30;;;7.90;;
71080;SDS011;58740;50.672;18.690;2022-09-11T00:16:44;16.70;;;10.60;;
71080;SDS011;58740;50.672;18.690;2022-09-11T00:19:17;14.70;;;8.70;;
71080;SDS011;58740;50.672;18.690;2022-09-11T00:21:47;13.70;;;8.40;;
71080;SDS011;58740;50.672;18.690;2022-09-11T00:24:16;12.80;;;8.60;;
71080;SDS011;58740;50.672;18.690;2022-09-11T00:26:44;12.90;;;7.70;;
71080;SDS011;58740;50.672;18.690;2022-09-11T00:29:14;12.70;;;8.20;;
71080;SDS011;58740;50.672;18.690;2022-09-11T00:31:41;16.10;;;8.60;;
71080;SDS011;58740;50.672;18.690;2022-09-11T00:34:09;13.60;;;8.20;;
71080;SDS011;58740;50.672;18.690;2022-09-11T00:36:37;15.70;;;8.40;;
71080;SDS011;58740;50.672;18.690;2022-09-11T00:39:09;13.70;;;8.40;;
71080;SDS011;58740;50.672;18.690;2022-09-11T00:41:41;14.50;;;8.50;;
71080;SDS011;58740;50.672;18.690;2022-09-11T00:46:53;16.30;;;9.00;;
71080;SDS011;58740;50.672;18.690;2022-09-11T00:49:37;15.10;;;9.50;;
71080;SDS011;58740;50.672;18.690;2022-09-11T00:52:15;15.60;;;9.80;;
71080;SDS011;58740;50.672;18.690;2022-09-11T00:55:26;17.50;;;9.50;;
71080;SDS011;58740;50.672;18.690;2022-09-11T00:58:04;14.00;;;8.60;;
71080;SDS011;58740;50.672;18.690;2022-09-11T01:00:35;11.90;;;8.00;;
71080;SDS011;58740;50.672;18.690;2022-09-11T01:03:05;11.40;;;7.00;;
71080;SDS011;58740;50.672;18.690;2022-09-11T01:05:34;12.70;;;7.60;;
71080;SDS011;58740;50.672;18.690;2022-09-11T01:08:06;13.50;;;7.50;;
71080;SDS011;58740;50.672;18.690;2022-09-11T01:10:41;10.50;;;6.40;;
71080;SDS011;58740;50.672;18.690;2022-09-11T01:14:00;11.20;;;6.70;;
71080;SDS011;58740;50.672;18.690;2022-09-11T01:23:04;9.30;;;6.00;;
71080;SDS011;58740;50.672;18.690;2022-09-11T01:26:15;9.60;;;5.70;;
71080;SDS011;58740;50.672;18.690;2022-09-11T01:35:11;11.60;;;6.90;;
71080;SDS011;58740;50.672;18.690;2022-09-11T01:38:16;10.50;;;6.50;;
71080;SDS011;58740;50.672;18.690;2022-09-11T01:41:29;12.00;;;6.60;;
71080;SDS011;58740;50.672;18.690;2022-09-11T01:46:41;10.40;;;7.10;;
71080;SDS011;58740;50.672;18.690;2022-09-11T01:49:16;10.50;;;7.10;;
71080;SDS011;58740;50.672;18.690;2022-09-11T01:52:06;9.30;;;5.80;;
71080;SDS011;58740;50.672;18.690;2022-09-11T01:54:59;9.60;;;5.70;;
71080;SDS011;58740;50.672;18.690;2022-09-11T01:57:40;12.00;;;6.70;;
71080;SDS011;58740;50.672;18.690;2022-09-11T02:00:18;8.10;;;5.20;;
71080;SDS011;58740;50.672;18.690;2022-09-11T02:02:50;7.70;;;5.50;;
71080;SDS011;58740;50.672;18.690;2022-09-11T02:05:27;9.00;;;5.10;;
71080;SDS011;58740;50.672;18.690;2022-09-11T02:08:03;7.80;;;4.70;;
71080;SDS011;58740;50.672;18.690;2022-09-11T02:10:53;7.70;;;3.80;;
71080;SDS011;58740;50.672;18.690;2022-09-11T02:13:31;5.40;;;3.60;;
71080;SDS011;58740;50.672;18.690;2022-09-11T02:16:15;8.10;;;4.40;;
71080;SDS011;58740;50.672;18.690;2022-09-11T02:19:00;7.40;;;3.70;;
71080;SDS011;58740;50.672;18.690;2022-09-11T02:21:31;7.00;;;4.00;;
71080;SDS011;58740;50.672;18.690;2022-09-11T02:24:00;6.60;;;4.20;;
71080;SDS011;58740;50.672;18.690;2022-09-11T02:26:32;8.50;;;4.60;;
71080;SDS011;58740;50.672;18.690;2022-09-11T02:29:06;8.40;;;4.80;;
71080;SDS011;58740;50.672;18.690;2022-09-11T02:31:35;9.10;;;4.80;;
71080;SDS011;58740;50.672;18.690;2022-09-11T02:34:03;8.60;;;5.20;;
71080;SDS011;58740;50.672;18.690;2022-09-11T02:44:57;10.20;;;6.40;;
71080;SDS011;58740;50.672;18.690;2022-09-11T02:59:36;13.30;;;7.90;;
71080;SDS011;58740;50.672;18.690;2022-09-11T03:02:11;17.70;;;7.50;;
71080;SDS011;58740;50.672;18.690;2022-09-11T03:04:40;13.60;;;7.80;;
71080;SDS011;58740;50.672;18.690;2022-09-11T03:07:08;14.20;;;8.50;;
71080;SDS011;58740;50.672;18.690;2022-09-11T03:09:36;15.80;;;8.70;;
71080;SDS011;58740;50.672;18.690;2022-09-11T03:12:04;16.30;;;8.50;;
71080;SDS011;58740;50.672;18.690;2022-09-11T03:14:32;14.30;;;9.30;;
71080;SDS011;58740;50.672;18.690;2022-09-11T03:17:00;12.40;;;8.00;;
71080;SDS011;58740;50.672;18.690;2022-09-11T03:19:28;14.80;;;9.00;;
71080;SDS011;58740;50.672;18.690;2022-09-11T03:21:56;14.40;;;8.80;;
71080;SDS011;58740;50.672;18.690;2022-09-11T03:24:24;13.00;;;9.00;;
71080;SDS011;58740;50.672;18.690;2022-09-11T03:26:53;16.30;;;9.50;;
71080;SDS011;58740;50.672;18.690;2022-09-11T03:29:20;17.40;;;10.40;;
71080;SDS011;58740;50.672;18.690;2022-09-11T03:31:48;16.30;;;10.00;;
71080;SDS011;58740;50.672;18.690;2022-09-11T03:34:16;15.60;;;8.80;;
71080;SDS011;58740;50.672;18.690;2022-09-11T03:36:44;16.90;;;9.70;;
71080;SDS011;58740;50.672;18.690;2022-09-11T03:39:14;19.50;;;9.80;;
71080;SDS011;58740;50.672;18.690;2022-09-11T03:41:42;19.00;;;9.70;;
71080;SDS011;58740;50.672;18.690;2022-09-11T03:44:10;16.70;;;10.10;;
71080;SDS011;58740;50.672;18.690;2022-09-11T03:46:39;13.20;;;9.30;;
71080;SDS011;58740;50.672;18.690;2022-09-11T03:49:06;16.50;;;10.20;;
71080;SDS011;58740;50.672;18.690;2022-09-11T03:51:34;16.40;;;9.10;;
71080;SDS011;58740;50.672;18.690;2022-09-11T03:54:01;11.80;;;7.80;;
71080;SDS011;58740;50.672;18.690;2022-09-11T03:56:30;11.90;;;8.30;;
71080;SDS011;58740;50.672;18.690;2022-09-11T03:58:58;12.40;;;8.60;;
71080;SDS011;58740;50.672;18.690;2022-09-11T04:01:26;12.10;;;7.80;;
71080;SDS011;58740;50.672;18.690;2022-09-11T04:03:56;15.60;;;10.30;;
71080;SDS011;58740;50.672;18.690;2022-09-11T04:06:24;14.30;;;10.30;;
71080;SDS011;58740;50.672;18.690;2022-09-11T04:08:51;15.90;;;9.60;;
71080;SDS011;58740;50.672;18.690;2022-09-11T04:11:19;12.40;;;8.10;;
71080;SDS011;58740;50.672;18.690;2022-09-11T04:13:47;10.50;;;7.00;;
71080;SDS011;58740;50.672;18.690;2022-09-11T04:16:17;10.00;;;6.80;;
71080;SDS011;58740;50.672;18.690;2022-09-11T04:18:46;9.60;;;7.10;;
71080;SDS011;58740;50.672;18.690;2022-09-11T04:21:16;11.30;;;7.30;;
71080;SDS011;58740;50.672;18.690;2022-09-11T04:23:49;11.70;;;6.90;;
71080;SDS011;58740;50.672;18.690;2022-09-11T04:26:21;10.70;;;7.30;;
71080;SDS011;58740;50.672;18.690;2022-09-11T04:28:50;10.50;;;6.90;;
71080;SDS011;58740;50.672;18.690;2022-09-11T04:31:19;9.30;;;6.20;;
71080;SDS011;58740;50.672;18.690;2022-09-11T04:33:48;10.50;;;7.00;;
71080;SDS011;58740;50.672;18.690;2022-09-11T04:36:17;10.70;;;7.00;;
71080;SDS011;58740;50.672;18.690;2022-09-11T04:38:46;10.30;;;7.10;;
71080;SDS011;58740;50.672;18.690;2022-09-11T04:41:15;9.70;;;6.40;;
71080;SDS011;58740;50.672;18.690;2022-09-11T04:43:43;9.90;;;6.80;;
71080;SDS011;58740;50.672;18.690;2022-09-11T04:46:13;10.50;;;6.30;;
71080;SDS011;58740;50.672;18.690;2022-09-11T04:48:46;10.60;;;6.50;;
71080;SDS011;58740;50.672;18.690;2022-09-11T04:53:51;9.60;;;6.50;;
71080;SDS011;58740;50.672;18.690;2022-09-11T04:56:19;13.00;;;7.60;;
71080;SDS011;58740;50.672;18.690;2022-09-11T04:58:59;11.60;;;8.20;;
71080;SDS011;58740;50.672;18.690;2022-09-11T05:01:30;11.30;;;7.10;;
71080;SDS011;58740;50.672;18.690;2022-09-11T05:04:00;12.90;;;7.70;;
71080;SDS011;58740;50.672;18.690;2022-09-11T05:06:29;11.20;;;7.00;;
71080;SDS011;58740;50.672;18.690;2022-09-11T05:09:04;13.90;;;8.00;;
71080;SDS011;58740;50.672;18.690;2022-09-11T05:11:35;15.50;;;7.80;;
71080;SDS011;58740;50.672;18.690;2022-09-11T05:14:04;10.70;;;7.50;;
71080;SDS011;58740;50.672;18.690;2022-09-11T05:16:33;10.80;;;6.60;;
71080;SDS011;58740;50.672;18.690;2022-09-11T05:19:03;11.60;;;6.90;;
71080;SDS011;58740;50.672;18.690;2022-09-11T05:21:32;11.50;;;7.30;;
71080;SDS011;58740;50.672;18.690;2022-09-11T05:24:01;10.30;;;6.60;;
71080;SDS011;58740;50.672;18.690;2022-09-11T05:26:32;11.20;;;7.10;;
71080;SDS011;58740;50.672;18.690;2022-09-11T05:29:05;12.10;;;7.50;;
71080;SDS011;58740;50.672;18.690;2022-09-11T05:31:35;11.70;;;7.80;;
71080;SDS011;58740;50.672;18.690;2022-09-11T05:34:03;11.80;;;7.80;;
71080;SDS011;58740;50.672;18.690;2022-09-11T05:36:32;11.30;;;7.30;;
71080;SDS011;58740;50.672;18.690;2022-09-11T05:39:02;10.60;;;7.40;;
71080;SDS011;58740;50.672;18.690;2022-09-11T05:41:31;12.70;;;8.30;;
71080;SDS011;58740;50.672;18.690;2022-09-11T05:43:58;12.20;;;7.50;;
71080;SDS011;58740;50.672;18.690;2022-09-11T05:46:27;13.70;;;8.60;;
71080;SDS011;58740;50.672;18.690;2022-09-11T05:48:54;12.90;;;8.60;;
71080;SDS011;58740;50.672;18.690;2022-09-11T05:51:22;13.00;;;8.20;;
71080;SDS011;58740;50.672;18.690;2022-09-11T05:53:54;10.80;;;7.60;;
71080;SDS011;58740;50.672;18.690;2022-09-11T05:56:24;11.30;;;7.80;;
71080;SDS011;58740;50.672;18.690;2022-09-11T05:58:52;14.40;;;8.50;;
71080;SDS011;58740;50.672;18.690;2022-09-11T06:01:23;10.80;;;7.80;;
71080;SDS011;58740;50.672;18.690;2022-09-11T06:03:53;13.00;;;7.60;;
71080;SDS011;58740;50.672;18.690;2022-09-11T06:06:23;10.60;;;6.90;;
71080;SDS011;58740;50.672;18.690;2022-09-11T06:08:50;10.70;;;7.00;;
71080;SDS011;58740;50.672;18.690;2022-09-11T06:11:20;10.80;;;7.20;;
71080;SDS011;58740;50.672;18.690;2022-09-11T06:13:49;10.90;;;7.10;;
71080;SDS011;58740;50.672;18.690;2022-09-11T06:16:21;9.80;;;6.70;;
71080;SDS011;58740;50.672;18.690;2022-09-11T06:18:51;10.40;;;5.70;;
71080;SDS011;58740;50.672;18.690;2022-09-11T06:21:24;9.90;;;6.30;;
71080;SDS011;58740;50.672;18.690;2022-09-11T06:23:53;10.20;;;6.70;;
71080;SDS011;58740;50.672;18.690;2022-09-11T06:26:24;9.60;;;6.40;;
71080;SDS011;58740;50.672;18.690;2022-09-11T06:28:53;12.30;;;6.80;;
71080;SDS011;58740;50.672;18.690;2022-09-11T06:31:24;12.00;;;7.00;;
71080;SDS011;58740;50.672;18.690;2022-09-11T06:33:52;13.30;;;8.90;;
71080;SDS011;58740;50.672;18.690;2022-09-11T06:36:23;12.10;;;8.20;;
71080;SDS011;58740;50.672;18.690;2022-09-11T06:38:57;11.80;;;6.90;;
71080;SDS011;58740;50.672;18.690;2022-09-11T06:41:26;13.10;;;9.30;;
71080;SDS011;58740;50.672;18.690;2022-09-11T06:43:54;12.10;;;8.80;;
71080;SDS011;58740;50.672;18.690;2022-09-11T06:46:23;13.20;;;9.00;;
71080;SDS011;58740;50.672;18.690;2022-09-11T06:48:52;13.40;;;9.80;;
71080;SDS011;58740;50.672;18.690;2022-09-11T06:51:21;14.10;;;10.80;;
71080;SDS011;58740;50.672;18.690;2022-09-11T06:53:53;14.50;;;10.40;;
71080;SDS011;58740;50.672;18.690;2022-09-11T06:56:26;10.40;;;7.40;;
71080;SDS011;58740;50.672;18.690;2022-09-11T06:58:54;10.00;;;6.50;;
71080;SDS011;58740;50.672;18.690;2022-09-11T07:01:22;11.60;;;7.70;;
71080;SDS011;58740;50.672;18.690;2022-09-11T07:03:52;9.50;;;6.50;;
71080;SDS011;58740;50.672;18.690;2022-09-11T07:06:25;9.00;;;5.70;;
71080;SDS011;58740;50.672;18.690;2022-09-11T07:08:57;9.20;;;5.80;;
71080;SDS011;58740;50.672;18.690;2022-09-11T07:11:31;8.70;;;5.20;;
71080;SDS011;58740;50.672;18.690;2022-09-11T07:14:01;9.50;;;6.40;;
71080;SDS011;58740;50.672;18.690;2022-09-11T07:16:32;12.30;;;7.90;;
71080;SDS011;58740;50.672;18.690;2022-09-11T07:19:01;11.90;;;8.70;;
71080;SDS011;58740;50.672;18.690;2022-09-11T07:21:30;11.50;;;8.50;;
71080;SDS011;58740;50.672;18.690;2022-09-11T07:24:02;12.30;;;8.00;;
71080;SDS011;58740;50.672;18.690;2022-09-11T07:26:30;10.90;;;7.00;;
71080;SDS011;58740;50.672;18.690;2022-09-11T07:28:58;10.60;;;6.40;;
71080;SDS011;58740;50.672;18.690;2022-09-11T07:31:28;12.20;;;8.80;;
71080;SDS011;58740;50.672;18.690;2022-09-11T07:34:00;10.80;;;6.40;;
71080;SDS011;58740;50.672;18.690;2022-09-11T07:36:31;11.50;;;7.20;;
71080;SDS011;58740;50.672;18.690;2022-09-11T07:39:00;11.10;;;6.30;;
71080;SDS011;58740;50.672;18.690;2022-09-11T07:41:30;10.40;;;7.60;;
71080;SDS011;58740;50.672;18.690;2022-09-11T07:43:58;9.90;;;6.90;;
71080;SDS011;58740;50.672;18.690;2022-09-11T07:46:27;11.40;;;7.30;;
71080;SDS011;58740;50.672;18.690;2022-09-11T07:48:56;11.90;;;7.20;;
71080;SDS011;58740;50.672;18.690;2022-09-11T07:51:25;12.00;;;7.80;;
71080;SDS011;58740;50.672;18.690;2022-09-11T07:53:55;11.40;;;7.60;;
71080;SDS011;58740;50.672;18.690;2022-09-11T07:56:25;11.30;;;8.50;;
71080;SDS011;58740;50.672;18.690;2022-09-11T07:58:54;10.10;;;7.10;;
71080;SDS011;58740;50.672;18.690;2022-09-11T08:01:25;10.10;;;6.60;;
71080;SDS011;58740;50.672;18.690;2022-09-11T08:03:55;10.50;;;6.60;;
71080;SDS011;58740;50.672;18.690;2022-09-11T08:06:31;10.70;;;6.30;;
71080;SDS011;58740;50.672;18.690;2022-09-11T08:09:06;10.50;;;6.40;;
71080;SDS011;58740;50.672;18.690;2022-09-11T08:11:38;10.80;;;6.40;;
71080;SDS011;58740;50.672;18.690;2022-09-11T08:14:09;10.70;;;6.90;;
71080;SDS011;58740;50.672;18.690;2022-09-11T08:16:40;10.20;;;5.70;;
71080;SDS011;58740;50.672;18.690;2022-09-11T08:19:19;8.40;;;5.20;;
71080;SDS011;58740;50.672;18.690;2022-09-11T08:21:50;9.40;;;5.30;;
71080;SDS011;58740;50.672;18.690;2022-09-11T08:24:19;9.70;;;6.10;;
71080;SDS011;58740;50.672;18.690;2022-09-11T08:26:47;7.70;;;5.20;;
71080;SDS011;58740;50.672;18.690;2022-09-11T08:29:16;10.80;;;5.10;;
71080;SDS011;58740;50.672;18.690;2022-09-11T08:31:44;8.10;;;4.40;;
71080;SDS011;58740;50.672;18.690;2022-09-11T08:34:12;8.70;;;4.10;;
71080;SDS011;58740;50.672;18.690;2022-09-11T08:36:40;8.10;;;4.60;;
71080;SDS011;58740;50.672;18.690;2022-09-11T08:39:07;7.90;;;4.80;;
71080;SDS011;58740;50.672;18.690;2022-09-11T08:47:12;12.50;;;6.80;;
71080;SDS011;58740;50.672;18.690;2022-09-11T08:49:52;10.10;;;5.80;;
71080;SDS011;58740;50.672;18.690;2022-09-11T08:52:27;7.60;;;4.30;;
71080;SDS011;58740;50.672;18.690;2022-09-11T08:54:57;8.80;;;4.80;;
71080;SDS011;58740;50.672;18.690;2022-09-11T09:00:32;7.50;;;4.30;;
71080;SDS011;58740;50.672;18.690;2022-09-11T09:06:24;7.30;;;4.20;;
71080;SDS011;58740;50.672;18.690;2022-09-11T09:15:02;9.20;;;4.80;;
71080;SDS011;58740;50.672;18.690;2022-09-11T09:17:59;6.50;;;4.00;;
71080;SDS011;58740;50.672;18.690;2022-09-11T09:20:34;7.90;;;4.30;;
71080;SDS011;58740;50.672;18.690;2022-09-11T09:23:21;7.10;;;3.70;;
71080;SDS011;58740;50.672;18.690;2022-09-11T09:25:54;9.60;;;5.70;;
71080;SDS011;58740;50.672;18.690;2022-09-11T09:31:00;7.10;;;4.40;;
71080;SDS011;58740;50.672;18.690;2022-09-11T09:33:47;7.90;;;4.50;;
71080;SDS011;58740;50.672;18.690;2022-09-11T09:36:23;8.00;;;4.10;;
71080;SDS011;58740;50.672;18.690;2022-09-11T09:38:58;7.00;;;4.30;;
71080;SDS011;58740;50.672;18.690;2022-09-11T09:44:44;6.70;;;3.90;;
71080;SDS011;58740;50.672;18.690;2022-09-11T09:47:22;8.80;;;3.70;;
71080;SDS011;58740;50.672;18.690;2022-09-11T09:49:50;10.70;;;5.30;;
71080;SDS011;58740;50.672;18.690;2022-09-11T09:52:30;9.10;;;5.40;;
71080;SDS011;58740;50.672;18.690;2022-09-11T09:55:03;11.00;;;5.50;;
71080;SDS011;58740;50.672;18.690;2022-09-11T09:57:35;9.20;;;4.90;;
71080;SDS011;58740;50.672;18.690;2022-09-11T10:02:40;7.80;;;4.30;;
71080;SDS011;58740;50.672;18.690;2022-09-11T10:11:03;7.90;;;4.30;;
71080;SDS011;58740;50.672;18.690;2022-09-11T10:13:37;8.50;;;4.70;;
71080;SDS011;58740;50.672;18.690;2022-09-11T10:16:21;9.00;;;4.50;;
71080;SDS011;58740;50.672;18.690;2022-09-11T10:18:52;6.80;;;4.30;;
71080;SDS011;58740;50.672;18.690;2022-09-11T10:21:29;8.30;;;4.70;;
71080;SDS011;58740;50.672;18.690;2022-09-11T10:24:02;8.10;;;4.10;;
71080;SDS011;58740;50.672;18.690;2022-09-11T10:26:52;7.50;;;3.50;;
71080;SDS011;58740;50.672;18.690;2022-09-11T10:29:26;6.10;;;3.60;;
71080;SDS011;58740;50.672;18.690;2022-09-11T10:32:00;7.50;;;3.80;;
71080;SDS011;58740;50.672;18.690;2022-09-11T10:34:36;5.80;;;3.60;;
71080;SDS011;58740;50.672;18.690;2022-09-11T10:39:45;7.40;;;3.60;;
71080;SDS011;58740;50.672;18.690;2022-09-11T10:42:19;9.30;;;3.20;;
71080;SDS011;58740;50.672;18.690;2022-09-11T10:44:52;7.50;;;3.30;;
71080;SDS011;58740;50.672;18.690;2022-09-11T10:47:27;5.30;;;2.90;;
71080;SDS011;58740;50.672;18.690;2022-09-11T10:53:16;5.70;;;2.60;;
71080;SDS011;58740;50.672;18.690;2022-09-11T10:55:57;5.50;;;2.70;;
71080;SDS011;58740;50.672;18.690;2022-09-11T10:58:32;5.00;;;2.60;;
71080;SDS011;58740;50.672;18.690;2022-09-11T11:01:05;5.10;;;2.40;;
71080;SDS011;58740;50.672;18.690;2022-09-11T11:03:32;6.30;;;3.00;;
71080;SDS011;58740;50.672;18.690;2022-09-11T11:13:14;5.00;;;2.60;;
71080;SDS011;58740;50.672;18.690;2022-09-11T11:30:36;5.30;;;2.80;;
71080;SDS011;58740;50.672;18.690;2022-09-11T11:36:12;6.20;;;3.30;;
71080;SDS011;58740;50.672;18.690;2022-09-11T11:38:58;4.90;;;2.30;;
71080;SDS011;58740;50.672;18.690;2022-09-11T11:41:43;5.70;;;3.10;;
71080;SDS011;58740;50.672;18.690;2022-09-11T11:44:28;6.50;;;3.50;;
71080;SDS011;58740;50.672;18.690;2022-09-11T11:47:03;6.60;;;3.60;;
71080;SDS011;58740;50.672;18.690;2022-09-11T11:49:42;5.80;;;3.30;;
71080;SDS011;58740;50.672;18.690;2022-09-11T11:52:34;8.10;;;3.00;;
71080;SDS011;58740;50.672;18.690;2022-09-11T11:55:16;6.50;;;2.80;;
71080;SDS011;58740;50.672;18.690;2022-09-11T11:58:06;6.00;;;2.80;;
71080;SDS011;58740;50.672;18.690;2022-09-11T12:00:43;5.00;;;2.70;;
71080;SDS011;58740;50.672;18.690;2022-09-11T12:03:28;5.00;;;2.70;;
71080;SDS011;58740;50.672;18.690;2022-09-11T12:06:04;8.30;;;2.60;;
71080;SDS011;58740;50.672;18.690;2022-09-11T12:08:44;5.90;;;2.70;;
71080;SDS011;58740;50.672;18.690;2022-09-11T12:11:15;4.10;;;2.20;;
71080;SDS011;58740;50.672;18.690;2022-09-11T12:13:52;5.40;;;2.50;;
71080;SDS011;58740;50.672;18.690;2022-09-11T12:16:27;4.50;;;2.40;;
71080;SDS011;58740;50.672;18.690;2022-09-11T12:19:14;5.10;;;2.40;;
71080;SDS011;58740;50.672;18.690;2022-09-11T12:22:10;5.10;;;2.60;;
71080;SDS011;58740;50.672;18.690;2022-09-11T12:24:56;5.70;;;3.50;;
71080;SDS011;58740;50.672;18.690;2022-09-11T12:32:49;5.10;;;3.00;;
71080;SDS011;58740;50.672;18.690;2022-09-11T12:35:39;6.30;;;2.70;;
71080;SDS011;58740;50.672;18.690;2022-09-11T12:38:37;7.10;;;3.20;;
71080;SDS011;58740;50.672;18.690;2022-09-11T12:41:13;5.30;;;2.90;;
71080;SDS011;58740;50.672;18.690;2022-09-11T12:43:48;5.30;;;2.90;;
71080;SDS011;58740;50.672;18.690;2022-09-11T12:48:54;5.20;;;2.60;;
71080;SDS011;58740;50.672;18.690;2022-09-11T12:51:53;4.70;;;2.90;;
71080;SDS011;58740;50.672;18.690;2022-09-11T12:54:52;5.80;;;2.90;;
71080;SDS011;58740;50.672;18.690;2022-09-11T12:57:26;5.00;;;2.60;;
71080;SDS011;58740;50.672;18.690;2022-09-11T13:00:04;5.30;;;2.80;;
71080;SDS011;58740;50.672;18.690;2022-09-11T13:02:40;5.90;;;2.90;;
71080;SDS011;58740;50.672;18.690;2022-09-11T13:05:25;5.30;;;2.90;;
71080;SDS011;58740;50.672;18.690;2022-09-11T13:08:21;6.30;;;3.60;;
71080;SDS011;58740;50.672;18.690;2022-09-11T13:10:52;6.30;;;2.90;;
71080;SDS011;58740;50.672;18.690;2022-09-11T13:16:23;8.20;;;3.70;;
71080;SDS011;58740;50.672;18.690;2022-09-11T13:19:13;6.20;;;3.60;;
71080;SDS011;58740;50.672;18.690;2022-09-11T13:21:43;7.70;;;4.00;;
71080;SDS011;58740;50.672;18.690;2022-09-11T13:29:36;6.60;;;3.60;;
71080;SDS011;58740;50.672;18.690;2022-09-11T13:32:09;6.00;;;3.50;;
71080;SDS011;58740;50.672;18.690;2022-09-11T13:34:45;6.80;;;3.10;;
71080;SDS011;58740;50.672;18.690;2022-09-11T13:37:50;5.50;;;2.70;;
71080;SDS011;58740;50.672;18.690;2022-09-11T13:40:40;5.30;;;3.10;;
71080;SDS011;58740;50.672;18.690;2022-09-11T13:43:16;6.30;;;3.20;;
71080;SDS011;58740;50.672;18.690;2022-09-11T13:45:47;6.40;;;3.10;;
71080;SDS011;58740;50.672;18.690;2022-09-11T13:48:22;8.10;;;4.00;;
71080;SDS011;58740;50.672;18.690;2022-09-11T13:50:51;7.40;;;4.80;;
71080;SDS011;58740;50.672;18.690;2022-09-11T13:53:21;8.10;;;4.60;;
71080;SDS011;58740;50.672;18.690;2022-09-11T13:55:49;7.60;;;4.60;;
71080;SDS011;58740;50.672;18.690;2022-09-11T13:58:30;10.10;;;6.10;;
71080;SDS011;58740;50.672;18.690;2022-09-11T14:01:12;8.50;;;5.00;;
71080;SDS011;58740;50.672;18.690;2022-09-11T14:03:44;8.40;;;5.40;;
71080;SDS011;58740;50.672;18.690;2022-09-11T14:06:16;8.80;;;5.30;;
71080;SDS011;58740;50.672;18.690;2022-09-11T14:08:54;9.90;;;5.20;;
71080;SDS011;58740;50.672;18.690;2022-09-11T14:11:29;9.60;;;4.90;;
71080;SDS011;58740;50.672;18.690;2022-09-11T14:14:08;8.90;;;4.60;;
71080;SDS011;58740;50.672;18.690;2022-09-11T14:16:48;8.50;;;5.10;;
71080;SDS011;58740;50.672;18.690;2022-09-11T14:19:41;8.90;;;5.00;;
71080;SDS011;58740;50.672;18.690;2022-09-11T14:22:22;9.40;;;4.80;;
71080;SDS011;58740;50.672;18.690;2022-09-11T14:27:41;8.60;;;4.90;;
71080;SDS011;58740;50.672;18.690;2022-09-11T14:30:27;9.60;;;5.60;;
71080;SDS011;58740;50.672;18.690;2022-09-11T14:33:15;8.80;;;4.90;;
71080;SDS011;58740;50.672;18.690;2022-09-11T14:35:53;11.00;;;5.20;;
71080;SDS011;58740;50.672;18.690;2022-09-11T14:38:44;8.10;;;4.70;;
71080;SDS011;58740;50.672;18.690;2022-09-11T14:41:13;7.60;;;4.10;;
71080;SDS011;58740;50.672;18.690;2022-09-11T14:43:41;9.80;;;4.50;;
71080;SDS011;58740;50.672;18.690;2022-09-11T14:46:14;7.70;;;4.50;;
71080;SDS011;58740;50.672;18.690;2022-09-11T14:48:42;8.00;;;4.60;;
71080;SDS011;58740;50.672;18.690;2022-09-11T14:51:10;7.00;;;3.80;;
71080;SDS011;58740;50.672;18.690;2022-09-11T14:53:40;6.90;;;3.50;;
71080;SDS011;58740;50.672;18.690;2022-09-11T14:56:10;7.50;;;3.90;;
71080;SDS011;58740;50.672;18.690;2022-09-11T14:58:37;8.40;;;4.30;;
71080;SDS011;58740;50.672;18.690;2022-09-11T15:01:05;9.20;;;4.60;;
71080;SDS011;58740;50.672;18.690;2022-09-11T15:03:33;8.30;;;4.30;;
71080;SDS011;58740;50.672;18.690;2022-09-11T15:06:01;7.20;;;4.40;;
71080;SDS011;58740;50.672;18.690;2022-09-11T15:08:28;8.40;;;3.80;;
71080;SDS011;58740;50.672;18.690;2022-09-11T15:10:56;8.40;;;3.90;;
71080;SDS011;58740;50.672;18.690;2022-09-11T15:13:23;8.20;;;4.10;;
71080;SDS011;58740;50.672;18.690;2022-09-11T15:15:51;7.50;;;3.80;;
71080;SDS011;58740;50.672;18.690;2022-09-11T15:18:19;7.90;;;4.30;;
71080;SDS011;58740;50.672;18.690;2022-09-11T15:20:46;7.50;;;3.90;;
71080;SDS011;58740;50.672;18.690;2022-09-11T15:23:14;7.70;;;4.00;;
71080;SDS011;58740;50.672;18.690;2022-09-11T15:25:42;9.20;;;4.40;;
71080;SDS011;58740;50.672;18.690;2022-09-11T15:28:10;9.40;;;4.70;;
71080;SDS011;58740;50.672;18.690;2022-09-11T15:30:38;8.00;;;4.20;;
71080;SDS011;58740;50.672;18.690;2022-09-11T15:33:06;7.10;;;3.60;;
71080;SDS011;58740;50.672;18.690;2022-09-11T15:35:33;8.10;;;4.20;;
71080;SDS011;58740;50.672;18.690;2022-09-11T15:38:01;6.50;;;3.60;;
71080;SDS011;58740;50.672;18.690;2022-09-11T15:40:30;7.50;;;4.30;;
71080;SDS011;58740;50.672;18.690;2022-09-11T15:42:58;7.00;;;3.60;;
71080;SDS011;58740;50.672;18.690;2022-09-11T15:45:26;7.50;;;3.50;;
71080;SDS011;58740;50.672;18.690;2022-09-11T15:47:56;6.60;;;3.30;;
71080;SDS011;58740;50.672;18.690;2022-09-11T15:50:26;5.90;;;3.40;;
71080;SDS011;58740;50.672;18.690;2022-09-11T15:52:56;6.20;;;3.20;;
71080;SDS011;58740;50.672;18.690;2022-09-11T15:55:24;6.20;;;3.10;;
71080;SDS011;58740;50.672;18.690;2022-09-11T15:57:58;7.10;;;3.70;;
71080;SDS011;58740;50.672;18.690;2022-09-11T16:00:27;7.60;;;3.80;;
71080;SDS011;58740;50.672;18.690;2022-09-11T16:02:55;7.70;;;3.90;;
71080;SDS011;58740;50.672;18.690;2022-09-11T16:05:23;7.80;;;3.60;;
71080;SDS011;58740;50.672;18.690;2022-09-11T16:07:50;8.90;;;3.50;;
71080;SDS011;58740;50.672;18.690;2022-09-11T16:10:19;5.20;;;2.70;;
71080;SDS011;58740;50.672;18.690;2022-09-11T16:12:47;5.10;;;2.30;;
71080;SDS011;58740;50.672;18.690;2022-09-11T16:15:15;5.20;;;2.50;;
71080;SDS011;58740;50.672;18.690;2022-09-11T16:17:42;5.90;;;2.50;;
71080;SDS011;58740;50.672;18.690;2022-09-11T16:20:10;7.30;;;2.80;;
71080;SDS011;58740;50.672;18.690;2022-09-11T16:22:39;5.50;;;2.70;;
71080;SDS011;58740;50.672;18.690;2022-09-11T16:25:06;5.00;;;2.30;;
71080;SDS011;58740;50.672;18.690;2022-09-11T16:27:34;4.90;;;2.00;;
71080;SDS011;58740;50.672;18.690;2022-09-11T16:30:02;5.60;;;2.40;;
71080;SDS011;58740;50.672;18.690;2022-09-11T16:32:50;5.70;;;2.70;;
71080;SDS011;58740;50.672;18.690;2022-09-11T16:35:20;5.50;;;2.30;;
71080;SDS011;58740;50.672;18.690;2022-09-11T16:37:49;7.10;;;2.50;;
71080;SDS011;58740;50.672;18.690;2022-09-11T16:40:17;10.00;;;3.40;;
71080;SDS011;58740;50.672;18.690;2022-09-11T16:42:45;5.70;;;2.70;;
71080;SDS011;58740;50.672;18.690;2022-09-11T16:45:12;9.60;;;4.00;;
71080;SDS011;58740;50.672;18.690;2022-09-11T16:47:40;8.10;;;3.50;;
71080;SDS011;58740;50.672;18.690;2022-09-11T16:50:08;6.60;;;2.90;;
71080;SDS011;58740;50.672;18.690;2022-09-11T16:52:36;5.90;;;2.80;;
71080;SDS011;58740;50.672;18.690;2022-09-11T16:55:07;6.70;;;3.10;;
71080;SDS011;58740;50.672;18.690;2022-09-11T16:57:36;5.50;;;2.60;;
71080;SDS011;58740;50.672;18.690;2022-09-11T17:00:05;5.50;;;2.50;;
71080;SDS011;58740;50.672;18.690;2022-09-11T17:02:37;6.30;;;3.20;;
71080;SDS011;58740;50.672;18.690;2022-09-11T17:05:06;5.10;;;2.40;;
71080;SDS011;58740;50.672;18.690;2022-09-11T17:07:35;6.80;;;3.00;;